createdAt,value
2022-10-20T00:02:13.556Z,10.55
2022-10-20T00:05:00.512Z,9.93
2022-10-20T00:07:47.545Z,11.73
2022-10-20T00:10:34.521Z,13.50
2022-10-20T00:13:14.903Z,10.75
2022-10-20T00:16:05.504Z,9.65
2022-10-20T00:18:46.055Z,10.95
2022-10-20T00:21:35.529Z,10.73
2022-10-20T00:24:15.911Z,9.50
2022-10-20T00:27:02.504Z,10.75
2022-10-20T00:29:42.886Z,10.25
2022-10-20T00:32:29.516Z,13.80
2022-10-20T00:35:09.905Z,9.10
2022-10-20T00:37:56.499Z,10.63
2022-10-20T00:40:43.521Z,10.02
2022-10-20T00:43:31.487Z,12.25
2022-10-20T00:46:21.564Z,12.73
2022-10-20T00:49:09.471Z,9.10
2022-10-20T00:52:01.495Z,12.48
2022-10-20T00:54:41.616Z,9.95
2022-10-20T00:57:28.469Z,9.45
2022-10-20T01:00:08.984Z,10.18
2022-10-20T01:02:57.467Z,10.73
2022-10-20T01:05:37.589Z,9.75
2022-10-20T01:08:24.594Z,8.85
2022-10-20T01:11:35.482Z,11.10
2022-10-20T01:14:28.464Z,11.18
2022-10-20T01:17:25.561Z,20.33
2022-10-20T01:20:32.405Z,17.33
2022-10-20T01:23:47.463Z,21.15
2022-10-20T01:26:49.453Z,19.38
2022-10-20T01:29:49.513Z,16.80
2022-10-20T01:32:45.417Z,21.42
2022-10-20T01:36:13.403Z,19.60
2022-10-20T01:39:04.016Z,20.63
2022-10-20T01:42:00.392Z,22.90
2022-10-20T01:44:42.453Z,23.52
2022-10-20T01:47:30.371Z,20.15
2022-10-20T01:50:12.797Z,25.88
2022-10-20T01:52:59.417Z,18.58
2022-10-20T01:55:40.772Z,21.77
2022-10-20T01:58:36.388Z,18.95
2022-10-20T02:01:38.435Z,17.17
2022-10-20T02:04:26.402Z,16.20
2022-10-20T02:07:18.263Z,18.38
2022-10-20T02:10:09.391Z,22.75
2022-10-20T02:13:00.356Z,18.55
2022-10-20T02:15:45.493Z,18.40
2022-10-20T02:18:40.389Z,19.85
2022-10-20T02:24:11.369Z,18.35
2022-10-20T02:26:51.437Z,22.67
2022-10-20T02:29:45.393Z,17.38
2022-10-20T02:32:25.449Z,26.33
2022-10-20T02:35:16.362Z,16.23
2022-10-20T02:37:57.471Z,15.75
2022-10-20T02:40:44.380Z,16.73
2022-10-20T02:43:24.433Z,19.75
2022-10-20T02:46:11.332Z,20.27
2022-10-20T02:48:51.417Z,18.13
2022-10-20T02:51:38.300Z,20.73
2022-10-20T02:54:18.398Z,21.27
2022-10-20T02:57:05.336Z,16.58
2022-10-20T02:59:45.419Z,21.13
2022-10-20T03:02:32.318Z,18.55
2022-10-20T03:25:55.252Z,16.67
2022-10-20T03:28:42.268Z,16.77
2022-10-20T03:31:22.390Z,17.08
2022-10-20T03:34:09.275Z,19.23
2022-10-20T03:36:49.366Z,18.55
2022-10-20T03:39:36.232Z,18.05
2022-10-20T03:42:23.246Z,21.30
2022-10-20T03:45:13.752Z,15.93
2022-10-20T03:47:56.363Z,18.63
2022-10-20T03:50:49.235Z,22.80
2022-10-20T03:53:36.199Z,19.17
2022-10-20T03:56:20.320Z,19.25
2022-10-20T03:59:00.268Z,17.15
2022-10-20T04:01:41.353Z,23.80
2022-10-20T04:04:28.180Z,20.65
2022-10-20T04:07:08.331Z,15.63
2022-10-20T04:09:55.232Z,15.55
2022-10-20T04:12:42.223Z,18.08
2022-10-20T04:15:29.200Z,19.08
2022-10-20T04:18:16.208Z,17.58
2022-10-20T04:21:03.212Z,21.23
2022-10-20T04:23:43.313Z,16.02
2022-10-20T04:26:30.169Z,22.50
2022-10-20T04:29:17.199Z,19.25
2022-10-20T04:32:04.191Z,19.25
2022-10-20T04:34:51.155Z,26.45
2022-10-20T04:37:31.613Z,27.33
2022-10-20T04:40:18.196Z,23.23
2022-10-20T04:43:01.943Z,21.75
2022-10-20T04:45:50.120Z,26.80
2022-10-20T04:48:37.231Z,15.25
2022-10-20T04:51:19.260Z,21.95
2022-10-20T04:57:01.114Z,19.98
2022-10-20T04:59:41.558Z,13.00
2022-10-20T05:02:28.138Z,8.95
2022-10-20T05:05:09.080Z,11.63
2022-10-20T05:07:56.156Z,8.55
2022-10-20T05:10:43.145Z,7.65
2022-10-20T05:13:30.121Z,10.07
2022-10-20T05:16:18.143Z,7.60
2022-10-20T05:19:05.160Z,9.05
2022-10-20T05:21:45.724Z,4.55
2022-10-20T05:24:32.122Z,8.18
2022-10-20T05:27:12.506Z,8.10
2022-10-20T05:29:59.109Z,6.55
2022-10-20T05:32:39.454Z,5.40
2022-10-20T05:35:26.134Z,6.35
2022-10-20T05:38:13.141Z,5.45
2022-10-20T05:41:00.111Z,4.05
2022-10-20T05:43:47.103Z,5.32
2022-10-20T05:46:34.066Z,6.80
2022-10-20T05:49:17.502Z,4.63
2022-10-20T05:52:04.067Z,4.47
2022-10-20T05:54:44.475Z,5.28
2022-10-20T05:57:31.112Z,3.65
2022-10-20T06:00:12.030Z,4.00
2022-10-20T06:02:59.066Z,2.97
2022-10-20T06:05:46.089Z,7.25
2022-10-20T06:08:26.204Z,6.55
2022-10-20T06:11:16.114Z,5.45
2022-10-20T06:13:56.162Z,3.65
2022-10-20T06:16:43.024Z,7.18
2022-10-20T06:19:23.271Z,2.03
2022-10-20T06:22:10.072Z,5.13
2022-10-20T06:25:04.041Z,4.55
2022-10-20T06:27:51.051Z,6.40
2022-10-20T06:30:38.061Z,5.35
2022-10-20T06:33:18.421Z,2.88
2022-10-20T06:36:05.036Z,5.43
2022-10-20T06:38:46.067Z,5.05
2022-10-20T06:41:33.026Z,3.92
2022-10-20T06:44:17.957Z,2.10
2022-10-20T06:47:05.030Z,3.58
2022-10-20T06:49:45.445Z,4.38
2022-10-20T06:52:32.003Z,3.67
2022-10-20T06:55:12.413Z,4.97
2022-10-20T06:57:59.011Z,4.10
2022-10-20T07:00:46.006Z,2.90
2022-10-20T07:03:33.029Z,4.68
2022-10-20T07:06:19.329Z,3.38
2022-10-20T07:09:08.109Z,3.65
2022-10-20T07:11:58.984Z,5.15
2022-10-20T07:14:39.063Z,3.25
2022-10-20T07:17:26.003Z,4.07
2022-10-20T07:20:12.937Z,3.75
2022-10-20T07:22:53.308Z,5.80
2022-10-20T07:25:39.960Z,6.05
2022-10-20T07:28:27.919Z,6.07
2022-10-20T07:31:20.983Z,4.90
2022-10-20T07:34:13.587Z,4.68
2022-10-20T07:37:09.978Z,3.80
2022-10-20T07:39:56.932Z,4.10
2022-10-20T07:42:43.957Z,5.75
2022-10-20T07:45:30.962Z,3.45
2022-10-20T07:48:11.092Z,2.35
2022-10-20T07:50:57.896Z,12.73
2022-10-20T07:53:44.920Z,4.38
2022-10-20T07:56:28.626Z,4.90
2022-10-20T07:59:14.955Z,5.95
2022-10-20T08:01:56.336Z,6.15
2022-10-20T08:04:45.989Z,4.20
2022-10-20T08:07:32.879Z,3.90
2022-10-20T08:10:14.030Z,3.92
2022-10-20T08:13:00.890Z,5.90
2022-10-20T08:15:56.696Z,3.40
2022-10-20T08:18:40.605Z,4.97
2022-10-20T08:21:29.892Z,2.58
2022-10-20T08:24:16.914Z,1.75
2022-10-20T08:27:03.874Z,5.95
2022-10-20T08:29:50.800Z,4.65
2022-10-20T08:32:46.870Z,4.22
2022-10-20T08:35:27.675Z,2.28
2022-10-20T08:38:14.865Z,3.63
2022-10-20T08:41:01.898Z,2.65
2022-10-20T08:43:46.950Z,5.00
2022-10-20T08:46:41.871Z,2.95
2022-10-20T08:52:23.836Z,4.78
2022-10-20T08:55:11.965Z,4.57
2022-10-20T08:57:52.443Z,2.67
2022-10-20T09:00:38.849Z,6.15
2022-10-20T09:03:37.957Z,2.28
2022-10-20T09:06:22.870Z,2.80
2022-10-20T09:09:09.861Z,8.30
2022-10-20T09:11:56.845Z,2.08
2022-10-20T09:14:37.783Z,2.20
2022-10-20T09:17:31.844Z,2.90
2022-10-20T09:20:19.087Z,2.37
2022-10-20T09:23:16.512Z,3.88
2022-10-20T09:26:44.921Z,1.70
2022-10-20T09:29:38.975Z,5.38
2022-10-20T09:32:56.322Z,6.65
2022-10-20T09:35:36.857Z,6.28
2022-10-20T09:38:23.759Z,3.40
2022-10-20T09:41:34.818Z,4.13
2022-10-20T09:44:23.927Z,6.25
2022-10-20T09:47:10.850Z,4.47
2022-10-20T09:49:51.881Z,5.97
2022-10-20T09:52:50.764Z,4.35
2022-10-20T09:55:48.793Z,4.32
2022-10-20T09:58:35.527Z,6.75
2022-10-20T10:01:29.846Z,4.15
2022-10-20T10:04:37.769Z,2.28
2022-10-20T10:07:39.762Z,4.88
2022-10-20T10:10:26.776Z,2.53
2022-10-20T10:13:07.921Z,5.38
2022-10-20T10:15:54.769Z,3.30
2022-10-20T10:18:45.444Z,4.65
2022-10-20T10:21:36.748Z,1.95
2022-10-20T10:25:00.754Z,3.72
2022-10-20T10:28:05.742Z,3.53
2022-10-20T10:33:35.961Z,4.13
2022-10-20T10:36:38.705Z,3.30
2022-10-20T10:39:19.135Z,2.45
2022-10-20T10:42:43.727Z,4.35
2022-10-20T10:45:39.729Z,3.55
2022-10-20T10:48:56.731Z,6.03
2022-10-20T10:51:52.912Z,4.72
2022-10-20T10:54:42.719Z,7.60
2022-10-20T10:57:49.714Z,5.03
2022-10-20T11:00:56.908Z,4.50
2022-10-20T11:04:02.729Z,3.38
2022-10-20T11:06:58.721Z,3.63
2022-10-20T11:09:48.791Z,3.55
2022-10-20T11:13:10.698Z,4.43
2022-10-20T11:16:20.656Z,4.78
2022-10-20T11:19:10.713Z,9.65
2022-10-20T11:22:03.677Z,8.45
2022-10-20T11:25:16.899Z,3.40
2022-10-20T11:27:57.650Z,4.05
2022-10-20T11:30:38.332Z,8.02
2022-10-20T11:33:40.704Z,2.63
2022-10-20T11:36:26.059Z,5.30
2022-10-20T11:39:13.665Z,3.75
2022-10-20T11:42:03.592Z,9.55
2022-10-20T11:44:55.668Z,7.07
2022-10-20T11:47:40.180Z,4.55
2022-10-20T11:50:32.630Z,5.13
2022-10-20T11:54:00.613Z,3.22
2022-10-20T11:57:09.659Z,4.88
2022-10-20T12:03:36.644Z,5.40
2022-10-20T12:06:44.629Z,3.17
2022-10-20T12:10:02.610Z,4.53
2022-10-20T12:13:04.820Z,4.50
2022-10-20T12:16:00.643Z,8.30
2022-10-20T12:19:21.634Z,6.82
2022-10-20T12:22:01.737Z,5.65
2022-10-20T12:25:11.662Z,8.15
2022-10-20T12:27:51.809Z,2.05
2022-10-20T12:30:44.636Z,5.80
2022-10-20T12:33:26.706Z,2.67
2022-10-20T12:36:25.592Z,3.45
2022-10-20T12:39:35.563Z,5.57
2022-10-20T12:42:29.632Z,3.90
2022-10-20T12:45:20.605Z,9.65
2022-10-20T12:48:02.753Z,6.03
2022-10-20T12:50:53.564Z,8.30
2022-10-20T12:53:41.569Z,7.05
2022-10-20T12:56:34.581Z,7.28
2022-10-20T12:59:29.969Z,4.75
2022-10-20T13:02:22.544Z,6.78
2022-10-20T13:05:12.544Z,6.28
2022-10-20T13:08:04.646Z,11.55
2022-10-20T13:10:52.537Z,4.82
2022-10-20T13:16:27.564Z,8.57
2022-10-20T13:19:07.694Z,2.00
2022-10-20T13:21:54.557Z,3.72
2022-10-20T13:24:46.548Z,8.00
2022-10-20T13:27:29.028Z,6.47
2022-10-20T13:30:20.509Z,4.93
2022-10-20T13:37:08.717Z,5.10
2022-10-20T13:40:04.556Z,3.65
2022-10-20T13:43:06.791Z,3.03
2022-10-20T13:45:56.509Z,2.15
2022-10-20T13:49:01.835Z,3.20
2022-10-20T13:51:58.479Z,8.00
2022-10-20T13:54:51.531Z,4.07
2022-10-20T13:57:35.014Z,8.95
2022-10-20T14:00:33.529Z,4.90
2022-10-20T14:03:18.490Z,4.95
2022-10-20T14:06:05.534Z,4.75
2022-10-20T14:08:45.918Z,3.05
2022-10-20T14:11:32.497Z,6.18
2022-10-20T14:14:22.628Z,3.30
2022-10-20T14:17:08.497Z,5.72
2022-10-20T14:19:49.677Z,4.25
2022-10-20T14:22:38.927Z,2.65
2022-10-20T14:25:25.473Z,7.70
2022-10-20T14:28:07.464Z,7.20
2022-10-20T14:30:56.433Z,4.07
2022-10-20T14:33:44.465Z,7.85
2022-10-20T14:36:34.469Z,4.97
2022-10-20T14:39:27.548Z,8.48
2022-10-20T14:42:31.423Z,10.52
2022-10-20T14:45:11.545Z,9.88
2022-10-20T14:47:59.464Z,4.22
2022-10-20T14:50:42.537Z,4.72
2022-10-20T14:53:29.445Z,4.05
2022-10-20T14:56:10.502Z,5.15
2022-10-20T14:59:03.408Z,7.50
2022-10-20T15:01:56.103Z,5.85
2022-10-20T15:04:38.454Z,4.95
2022-10-20T15:07:46.447Z,7.68
2022-10-20T15:10:27.212Z,5.28
2022-10-20T15:27:32.722Z,8.33
2022-10-20T15:30:21.949Z,7.68
2022-10-20T15:33:08.749Z,6.35
2022-10-20T15:35:56.785Z,7.70
2022-10-20T15:38:36.953Z,6.78
2022-10-20T15:41:26.727Z,13.20
2022-10-20T15:44:28.753Z,8.63
2022-10-20T15:47:09.250Z,6.85
2022-10-20T15:49:55.784Z,8.35
2022-10-20T15:52:37.959Z,6.35
2022-10-20T15:55:41.829Z,5.85
2022-10-20T15:58:28.733Z,7.40
2022-10-20T16:01:08.878Z,13.48
2022-10-20T16:03:55.697Z,13.32
2022-10-20T16:06:35.849Z,8.48
2022-10-20T16:09:22.747Z,12.88
2022-10-20T16:12:09.687Z,7.90
2022-10-20T16:14:56.743Z,7.90
2022-10-20T16:17:36.868Z,8.73
2022-10-20T16:20:23.714Z,7.53
2022-10-20T16:23:03.823Z,3.97
2022-10-20T16:25:50.688Z,4.57
2022-10-20T16:28:37.703Z,6.93
2022-10-20T16:31:24.666Z,10.40
2022-10-20T16:34:01.068Z,4.20
2022-10-20T16:36:27.886Z,4.60
2022-10-20T16:38:56.764Z,5.32
2022-10-20T16:41:23.642Z,6.80
2022-10-20T16:43:50.655Z,4.78
2022-10-20T16:46:17.609Z,3.47
2022-10-20T16:48:47.702Z,7.75
2022-10-20T16:51:15.885Z,9.55
2022-10-20T16:53:43.120Z,3.92
2022-10-20T16:56:09.941Z,5.53
2022-10-20T16:58:36.782Z,7.43
2022-10-20T17:01:13.036Z,6.15
2022-10-20T17:03:45.143Z,10.23
2022-10-20T17:06:12.958Z,5.07
2022-10-20T17:08:40.610Z,7.65
2022-10-20T17:11:13.056Z,6.22
2022-10-20T17:13:40.906Z,7.50
2022-10-20T17:16:09.808Z,7.07
2022-10-20T17:18:37.078Z,6.70
2022-10-20T17:21:04.764Z,9.38
2022-10-20T17:23:37.317Z,5.03
2022-10-20T17:26:09.772Z,5.75
2022-10-20T17:28:37.627Z,8.32
2022-10-20T17:31:09.424Z,5.53
2022-10-20T17:33:37.414Z,9.77
2022-10-20T17:36:04.989Z,7.55
2022-10-20T17:38:32.435Z,5.70
2022-10-20T17:41:04.180Z,5.35
2022-10-20T17:43:31.393Z,7.60
2022-10-20T17:46:03.645Z,4.63
2022-10-20T17:48:30.666Z,4.65
2022-10-20T17:51:12.501Z,4.22
2022-10-20T17:53:43.671Z,6.85
2022-10-20T17:56:13.529Z,5.00
2022-10-20T17:58:42.711Z,7.13
2022-10-20T18:01:20.321Z,5.03
2022-10-20T18:03:48.828Z,7.15
2022-10-20T18:06:21.133Z,6.22
2022-10-20T18:08:48.861Z,7.35
2022-10-20T18:11:20.153Z,8.32
2022-10-20T18:13:47.277Z,7.68
2022-10-20T18:16:16.812Z,4.70
2022-10-20T18:18:43.852Z,5.30
2022-10-20T18:21:12.552Z,5.90
2022-10-20T18:23:41.327Z,5.30
2022-10-20T18:26:11.533Z,5.38
2022-10-20T18:28:43.190Z,9.68
2022-10-20T18:33:47.722Z,4.90
2022-10-20T18:36:17.912Z,7.10
2022-10-20T18:38:46.887Z,7.85
2022-10-20T18:41:15.205Z,10.48
2022-10-20T18:43:42.787Z,9.20
2022-10-20T18:46:10.260Z,8.75
2022-10-20T18:48:38.804Z,11.93
2022-10-20T18:51:06.951Z,10.18
2022-10-20T18:53:35.676Z,9.30
2022-10-20T18:56:05.533Z,12.65
2022-10-20T18:58:35.300Z,8.02
2022-10-20T19:01:04.978Z,9.02
2022-10-20T19:03:33.265Z,16.58
2022-10-20T19:06:13.153Z,9.40
2022-10-20T19:08:40.898Z,9.82
2022-10-20T19:11:12.842Z,14.20
2022-10-20T19:13:40.147Z,13.05
2022-10-20T19:16:12.759Z,7.72
2022-10-20T19:18:42.625Z,7.43
2022-10-20T19:21:10.019Z,11.15
2022-10-20T19:23:39.983Z,10.00
2022-10-20T19:26:11.368Z,7.85
2022-10-20T19:28:47.017Z,4.57
2022-10-20T19:31:34.158Z,5.53
2022-10-20T19:34:04.442Z,9.25
2022-10-20T19:36:31.729Z,6.68
2022-10-20T19:38:58.595Z,9.88
2022-10-20T19:41:26.546Z,6.63
2022-10-20T19:43:53.464Z,9.18
2022-10-20T19:46:21.807Z,11.60
2022-10-20T19:48:49.275Z,6.20
2022-10-20T19:51:18.075Z,4.43
2022-10-20T19:53:46.007Z,10.75
2022-10-20T19:56:13.640Z,10.23
2022-10-20T19:58:45.616Z,6.82
2022-10-20T20:01:13.781Z,8.90
2022-10-20T20:03:40.980Z,7.53
2022-10-20T20:06:10.888Z,7.05
2022-10-20T20:08:40.241Z,7.43
2022-10-20T20:11:08.519Z,5.18
2022-10-20T20:13:35.485Z,8.80
2022-10-20T20:16:07.419Z,5.93
2022-10-20T20:18:35.961Z,5.65
2022-10-20T20:21:05.079Z,14.38
2022-10-20T20:23:47.675Z,7.72
2022-10-20T20:26:21.444Z,9.07
2022-10-20T20:28:48.880Z,11.43
2022-10-20T20:31:15.748Z,6.30
2022-10-20T20:33:42.613Z,5.03
2022-10-20T20:36:09.799Z,7.28
2022-10-20T20:38:38.377Z,4.75
2022-10-20T20:41:07.599Z,5.90
2022-10-20T20:43:35.527Z,8.85
2022-10-20T20:46:04.143Z,5.40
2022-10-20T20:48:30.996Z,7.28
2022-10-20T20:50:58.884Z,5.85
2022-10-20T20:53:25.946Z,9.35
2022-10-20T20:55:53.839Z,5.53
2022-10-20T20:58:20.736Z,10.32
2022-10-20T21:00:47.643Z,4.57
2022-10-20T21:03:14.672Z,5.28
2022-10-20T21:05:41.468Z,7.10
2022-10-20T21:08:08.407Z,6.63
2022-10-20T21:10:35.939Z,5.20
2022-10-20T21:13:02.883Z,6.68
2022-10-20T21:15:29.721Z,5.28
2022-10-20T21:17:56.555Z,7.03
2022-10-20T21:20:23.435Z,5.05
2022-10-20T21:22:50.285Z,3.70
2022-10-20T21:25:17.241Z,4.53
2022-10-20T21:27:44.142Z,5.45
2022-10-20T21:30:11.148Z,4.82
2022-10-20T21:32:38.211Z,7.97
2022-10-20T21:35:05.495Z,6.25
2022-10-20T21:37:32.410Z,8.57
2022-10-20T21:39:59.269Z,3.60
2022-10-20T21:42:26.240Z,6.75
2022-10-20T21:44:53.050Z,6.25
2022-10-20T21:47:19.828Z,3.92
2022-10-20T21:49:46.744Z,6.60
2022-10-20T21:52:13.942Z,3.15
2022-10-20T21:54:40.844Z,4.88
2022-10-20T21:57:07.661Z,6.38
2022-10-20T21:59:34.502Z,5.53
2022-10-20T22:02:01.773Z,3.88
2022-10-20T22:04:29.980Z,6.65
2022-10-20T22:06:57.784Z,5.70
2022-10-20T22:09:24.725Z,5.40
2022-10-20T22:11:59.625Z,8.68
2022-10-20T22:14:26.631Z,7.22
2022-10-20T22:16:55.691Z,3.55
2022-10-20T22:19:24.296Z,5.18
2022-10-20T22:21:52.666Z,6.25
2022-10-20T22:24:21.081Z,4.13
2022-10-20T22:26:49.322Z,4.65
2022-10-20T22:29:16.276Z,5.28
2022-10-20T22:31:43.168Z,5.50
2022-10-20T22:34:11.065Z,5.32
2022-10-20T22:36:39.512Z,3.38
2022-10-20T22:39:08.130Z,3.65
2022-10-20T22:41:35.119Z,2.83
2022-10-20T22:44:01.928Z,2.28
2022-10-20T22:46:29.506Z,2.97
2022-10-20T22:51:29.113Z,3.42
2022-10-20T22:53:55.933Z,4.97
2022-10-20T22:56:23.678Z,4.15
2022-10-20T22:58:52.588Z,2.75
2022-10-20T23:01:22.405Z,2.50
2022-10-20T23:03:49.622Z,3.65
2022-10-20T23:06:20.449Z,2.35
2022-10-20T23:08:49.739Z,3.47
2022-10-20T23:11:17.332Z,3.13
2022-10-20T23:13:44.719Z,5.13
2022-10-20T23:16:12.059Z,6.63
2022-10-20T23:18:39.443Z,4.18
2022-10-20T23:21:06.937Z,2.40
2022-10-20T23:23:36.400Z,4.35
2022-10-20T23:26:04.806Z,3.95
2022-10-20T23:28:32.458Z,2.15
2022-10-20T23:31:14.193Z,4.38
2022-10-20T23:33:42.444Z,2.38
2022-10-20T23:36:09.676Z,4.45
2022-10-20T23:38:36.792Z,3.53
2022-10-20T23:41:04.013Z,2.78
2022-10-20T23:43:31.166Z,3.30
2022-10-20T23:45:58.200Z,3.80
2022-10-20T23:48:25.347Z,2.55
2022-10-20T23:50:52.304Z,2.13
2022-10-20T23:53:19.142Z,2.20
2022-10-20T23:55:46.025Z,2.25
2022-10-20T23:58:12.964Z,4.55
